Time;durP1;ratioP1;P1;durP2;ratioP2;P2;SDS_P1;SDS_P2;PMS_P1;PMS_P2;Temp;Humidity;BMP_temperature;BMP_pressure;BME280_temperature;BME280_humidity;BME280_pressure;Samples;Min_cycle;Max_cycle;Signal;HPM_P1;HPM_P2
2021/06/18 00:00:58;;;;;;;10.57;6.88;;;;;;;26.58;49.48;101254.75;5027304;27;113965;-69
2021/06/18 00:03:25;;;;;;;9.27;6.50;;;;;;;26.56;49.36;101252.19;5030409;27;123845;-69
2021/06/18 00:05:52;;;;;;;10.30;6.75;;;;;;;26.53;49.53;101241.63;5024727;27;124563;-69
2021/06/18 00:08:19;;;;;;;8.50;6.97;;;;;;;26.50;49.52;101236.50;4999005;28;114125;-69
2021/06/18 00:10:46;;;;;;;9.98;6.70;;;;;;;26.47;49.51;101242.28;5010795;27;112854;-70
2021/06/18 00:13:14;;;;;;;7.90;6.47;;;;;;;26.46;49.52;101234.31;5017894;27;124217;-70
2021/06/18 00:15:41;;;;;;;8.93;6.95;;;;;;;26.43;49.32;101235.50;5023823;27;124150;-70
2021/06/18 00:18:08;;;;;;;10.05;6.63;;;;;;;26.42;49.24;101233.78;5002257;28;113190;-70
2021/06/18 00:20:35;;;;;;;9.45;6.80;;;;;;;26.40;49.34;101222.22;5026710;27;113917;-70
2021/06/18 00:23:02;;;;;;;9.98;6.80;;;;;;;26.38;49.22;101221.53;5013432;28;123192;-70
2021/06/18 00:25:29;;;;;;;9.80;6.68;;;;;;;26.37;49.60;101219.81;5027900;27;124710;-70
2021/06/18 00:27:56;;;;;;;8.77;6.50;;;;;;;26.34;49.52;101214.75;5012123;28;113997;-69
2021/06/18 00:30:24;;;;;;;7.72;6.53;;;;;;;26.34;49.36;101217.47;5026193;27;114563;-70
2021/06/18 00:32:51;;;;;;;8.23;6.90;;;;;;;26.32;49.39;101222.22;5001121;27;123865;-69
2021/06/18 00:35:18;;;;;;;9.35;6.85;;;;;;;26.29;49.75;101227.94;5028169;27;123117;-69
2021/06/18 00:37:45;;;;;;;8.52;6.82;;;;;;;26.27;49.63;101229.97;5022443;27;114632;-70
2021/06/18 00:40:13;;;;;;;9.02;6.63;;;;;;;26.25;49.84;101226.59;5026035;27;113858;-69
2021/06/18 00:42:40;;;;;;;9.85;6.97;;;;;;;26.20;49.81;101225.22;5017709;27;123342;-70
2021/06/18 00:45:08;;;;;;;8.18;6.65;;;;;;;26.19;49.95;101226.22;5016687;27;123866;-70
2021/06/18 00:47:40;;;;;;;8.45;6.85;;;;;;;26.17;50.13;101225.53;5004723;28;114914;-70
2021/06/18 00:50:07;;;;;;;8.68;6.53;;;;;;;26.17;49.88;101219.25;5023883;27;114215;-69
2021/06/18 00:52:35;;;;;;;8.40;6.97;;;;;;;26.14;50.03;101231.25;5003354;28;123825;-70
2021/06/18 00:55:02;;;;;;;8.82;6.95;;;;;;;26.14;50.02;101230.41;5019363;27;124084;-70
2021/06/18 00:57:29;;;;;;;9.93;6.63;;;;;;;26.11;50.24;101218.03;5010073;28;114945;-70
2021/06/18 00:59:56;;;;;;;9.43;7.22;;;;;;;26.08;50.09;101221.06;5023968;27;114285;-70
2021/06/18 01:02:23;;;;;;;9.50;7.60;;;;;;;26.09;50.25;101221.91;5005673;28;123060;-70
2021/06/18 01:04:50;;;;;;;10.65;7.78;;;;;;;26.07;50.22;101203.09;5026669;27;123990;-70
2021/06/18 01:07:31;;;;;;;10.80;7.63;;;;;;;26.03;50.17;101207.09;5026263;27;114475;-69
2021/06/18 01:10:14;;;;;;;14.70;8.95;;;;;;;25.98;50.27;101204.06;4991104;28;115121;-70
2021/06/18 01:12:58;;;;;;;12.70;9.27;;;;;;;25.95;50.45;101193.50;5024267;27;124900;-71
2021/06/18 01:15:49;;;;;;;12.88;8.60;;;;;;;25.92;50.20;101182.97;5016282;27;124374;-70
2021/06/18 01:18:22;;;;;;;12.95;8.85;;;;;;;25.89;50.43;101173.25;5020251;27;114759;-70
2021/06/18 01:21:09;;;;;;;10.70;8.38;;;;;;;25.86;50.40;101172.72;5006524;27;114356;-70
2021/06/18 01:23:53;;;;;;;14.02;7.80;;;;;;;25.82;50.62;101170.34;5016508;27;124860;-69
2021/06/18 01:26:40;;;;;;;12.18;8.60;;;;;;;25.80;50.67;101164.22;4997677;28;123853;-70
2021/06/18 01:29:07;;;;;;;11.25;8.10;;;;;;;25.78;50.98;101179.81;5015342;27;115341;-69
2021/06/18 01:31:44;;;;;;;10.55;7.32;;;;;;;25.73;51.13;101181.28;5016344;27;113400;-70
2021/06/18 01:34:16;;;;;;;10.48;7.97;;;;;;;25.71;51.00;101186.91;5020378;28;123573;-70
2021/06/18 01:36:47;;;;;;;11.05;8.80;;;;;;;25.67;51.06;101188.22;5030856;27;123785;-70
2021/06/18 01:39:16;;;;;;;11.15;8.73;;;;;;;25.64;51.14;101185.84;5029848;27;114938;-69
2021/06/18 01:41:47;;;;;;;12.48;7.78;;;;;;;25.60;51.00;101195.31;5026208;27;113894;-69
2021/06/18 01:44:15;;;;;;;13.25;8.40;;;;;;;25.59;51.11;101193.59;5008768;28;124563;-69
2021/06/18 01:46:44;;;;;;;13.55;9.10;;;;;;;25.59;51.16;101204.44;5023228;27;124338;-69
2021/06/18 01:49:13;;;;;;;11.85;8.75;;;;;;;25.59;51.46;101199.03;5033541;27;114273;-69
2021/06/18 01:51:41;;;;;;;11.43;8.90;;;;;;;25.55;51.22;101203.06;5008765;28;114090;-70
2021/06/18 01:54:09;;;;;;;12.73;9.70;;;;;;;25.52;51.60;101204.22;5032078;22;123696;-67
2021/06/18 01:56:39;;;;;;;11.05;8.80;;;;;;;25.50;51.58;101210.81;5024807;27;122587;-70
2021/06/18 01:59:06;;;;;;;12.98;9.23;;;;;;;25.47;51.69;101212.00;5021895;27;114987;-70
2021/06/18 02:01:37;;;;;;;12.48;9.23;;;;;;;25.45;51.64;101204.00;5005197;28;114053;-71
2021/06/18 02:04:05;;;;;;;12.70;9.20;;;;;;;25.43;51.59;101211.47;5028704;27;123833;-70
2021/06/18 02:06:36;;;;;;;15.23;10.27;;;;;;;25.39;51.83;101215.50;5019343;27;122895;-70
2021/06/18 02:09:06;;;;;;;12.15;8.88;;;;;;;25.38;52.04;101208.34;5022026;27;115276;-69
2021/06/18 02:11:38;;;;;;;14.52;10.18;;;;;;;25.36;51.78;101210.38;5023881;28;114717;-69
2021/06/18 02:14:10;;;;;;;16.83;10.32;;;;;;;25.35;52.11;101205.94;5027232;27;124800;-70
2021/06/18 02:16:43;;;;;;;15.27;10.38;;;;;;;25.35;52.00;101208.66;5023305;27;124744;-69
2021/06/18 02:19:14;;;;;;;14.82;10.32;;;;;;;25.35;52.15;101208.66;5005271;27;114501;-69
2021/06/18 02:21:44;;;;;;;13.98;10.63;;;;;;;25.35;52.28;101208.66;5017125;28;114068;-69
2021/06/18 02:24:12;;;;;;;14.80;10.35;;;;;;;25.35;52.34;101214.06;5018507;27;123827;-69
2021/06/18 02:26:41;;;;;;;14.02;10.55;;;;;;;25.36;52.31;101215.78;5023405;27;123008;-69
2021/06/18 02:29:08;;;;;;;17.10;12.00;;;;;;;25.34;52.36;101206.97;5030317;27;114780;-69
2021/06/18 02:31:38;;;;;;;14.82;11.50;;;;;;;25.32;52.37;101206.28;5023594;27;114024;-69
2021/06/18 02:34:09;;;;;;;14.95;11.55;;;;;;;25.31;52.49;101201.84;5023137;27;124369;-69
2021/06/18 02:36:38;;;;;;;15.85;11.57;;;;;;;25.29;52.73;101195.72;5002981;27;124578;-69
2021/06/18 02:39:08;;;;;;;15.18;11.90;;;;;;;25.25;52.50;101191.63;5025455;27;114596;-69
2021/06/18 02:41:36;;;;;;;16.00;11.18;;;;;;;25.25;52.75;101186.22;5024570;27;114833;-69
2021/06/18 02:44:04;;;;;;;16.52;12.43;;;;;;;25.22;52.96;101186.50;5025124;27;124091;-69
2021/06/18 02:46:39;;;;;;;16.10;11.82;;;;;;;25.20;53.11;101180.38;5027353;27;123712;-69
2021/06/18 02:49:11;;;;;;;17.50;12.00;;;;;;;25.20;52.92;101177.66;5023130;27;114664;-69
2021/06/18 02:51:49;;;;;;;16.20;11.98;;;;;;;25.17;53.10;101178.00;5022417;27;114158;-69
2021/06/18 02:54:30;;;;;;;14.35;11.20;;;;;;;25.16;53.19;101176.28;5027918;27;124374;-69
2021/06/18 02:57:02;;;;;;;17.23;12.18;;;;;;;25.15;53.08;101169.16;5026490;27;124063;-68
2021/06/18 02:59:35;;;;;;;17.15;12.05;;;;;;;25.12;53.22;101174.91;5001428;28;113967;-69
2021/06/18 03:02:04;;;;;;;15.57;11.55;;;;;;;25.11;53.31;101165.03;5016749;27;114774;-69
2021/06/18 03:04:33;;;;;;;18.13;12.50;;;;;;;25.10;53.35;101174.19;5028524;27;124561;-69
2021/06/18 03:07:05;;;;;;;19.42;12.23;;;;;;;25.08;53.35;101168.09;5010488;28;123784;-70
2021/06/18 03:09:36;;;;;;;16.70;13.15;;;;;;;25.05;53.25;101170.09;5027770;27;114901;-69
2021/06/18 03:12:04;;;;;;;18.52;12.10;;;;;;;25.05;53.52;101180.06;5006585;28;113105;-70
2021/06/18 03:14:36;;;;;;;17.67;12.70;;;;;;;25.03;53.47;101188.38;5023781;27;124536;-69
2021/06/18 03:17:09;;;;;;;17.17;12.55;;;;;;;25.03;53.63;101191.09;5026620;27;123923;-69
2021/06/18 03:19:41;;;;;;;15.70;12.38;;;;;;;25.03;53.59;101182.09;5009319;28;114742;-69
2021/06/18 03:22:11;;;;;;;17.20;12.80;;;;;;;25.01;53.49;101184.09;5027100;27;114345;-69
2021/06/18 03:24:39;;;;;;;20.02;12.77;;;;;;;25.00;53.54;101177.84;5011066;28;123112;-69
2021/06/18 03:27:07;;;;;;;17.27;12.73;;;;;;;25.00;53.65;101183.25;5025288;28;124008;-69
2021/06/18 03:29:37;;;;;;;18.45;12.70;;;;;;;25.00;53.93;101177.00;5022985;27;114372;-69
2021/06/18 03:32:06;;;;;;;18.13;12.90;;;;;;;25.00;53.98;101177.84;5025758;27;114844;-70
2021/06/18 03:34:34;;;;;;;17.42;12.60;;;;;;;25.00;53.79;101177.84;5030933;27;123849;-69
2021/06/18 03:37:02;;;;;;;19.80;13.27;;;;;;;24.99;53.84;101192.38;5020026;27;124253;-70
2021/06/18 03:39:30;;;;;;;17.40;12.82;;;;;;;25.01;53.90;101216.63;5024133;27;114221;-69
2021/06/18 03:41:58;;;;;;;16.90;13.15;;;;;;;25.03;54.32;101269.69;5021107;27;114304;-70
2021/06/18 03:44:25;;;;;;;16.63;12.57;;;;;;;25.01;54.33;101347.56;5025650;27;124118;-70
2021/06/18 03:46:53;;;;;;;17.92;12.98;;;;;;;24.98;54.19;101374.97;5016102;27;124276;-69
2021/06/18 03:49:24;;;;;;;17.65;12.38;;;;;;;24.94;54.20;101379.00;5005193;27;114412;-68
2021/06/18 03:51:54;;;;;;;19.23;12.73;;;;;;;24.92;54.59;101332.22;5009584;28;114479;-69
2021/06/18 03:54:22;;;;;;;18.38;12.43;;;;;;;24.92;54.57;101267.19;5026466;27;122947;-69
2021/06/18 03:56:52;;;;;;;17.23;12.65;;;;;;;24.92;54.53;101234.69;5011842;27;123279;-70
2021/06/18 03:59:20;;;;;;;18.27;13.02;;;;;;;24.96;54.54;101217.09;5029419;27;114241;-69
2021/06/18 04:01:52;;;;;;;16.50;12.45;;;;;;;25.00;54.57;101215.78;5030311;27;114194;-70
2021/06/18 04:04:22;;;;;;;13.48;9.10;;;;;;;25.06;54.37;101226.00;5021279;27;124072;-69
2021/06/18 04:06:50;;;;;;;13.02;10.05;;;;;;;25.14;54.43;101248.78;5024846;27;124142;-69
2021/06/18 04:09:18;;;;;;;15.45;11.23;;;;;;;25.21;54.19;101321.19;5027022;28;114582;-69
2021/06/18 04:11:46;;;;;;;13.82;10.88;;;;;;;25.27;54.24;101395.69;5025872;27;114160;-68
2021/06/18 04:14:14;;;;;;;14.05;10.82;;;;;;;25.31;54.19;101440.47;5027552;27;124044;-69
2021/06/18 04:16:42;;;;;;;12.90;10.18;;;;;;;25.32;54.10;101425.91;5006709;27;122708;-69
2021/06/18 04:19:10;;;;;;;13.93;9.50;;;;;;;25.35;54.04;101387.63;5020031;27;114738;-69
2021/06/18 04:21:42;;;;;;;13.35;9.68;;;;;;;25.40;54.08;101347.34;5024969;28;114150;-69
2021/06/18 04:24:14;;;;;;;14.18;10.32;;;;;;;25.44;54.61;101259.25;5027676;27;124393;-67
2021/06/18 04:26:42;;;;;;;11.90;9.63;;;;;;;25.47;54.38;101254.50;5023950;27;125789;-67
2021/06/18 04:29:10;;;;;;;13.40;9.05;;;;;;;25.45;54.45;101271.81;5021597;27;114632;-69
2021/06/18 04:31:37;;;;;;;12.70;9.52;;;;;;;25.48;54.76;101283.34;5019814;27;113608;-68
2021/06/18 04:34:06;;;;;;;13.70;9.30;;;;;;;25.51;54.54;101267.63;5026337;27;124631;-68
2021/06/18 04:36:36;;;;;;;11.90;9.00;;;;;;;25.54;54.46;101261.03;5002168;28;124692;-68
2021/06/18 04:39:07;;;;;;;11.90;8.65;;;;;;;25.56;54.43;101253.56;5017302;27;115410;-68
2021/06/18 04:41:35;;;;;;;8.35;7.22;;;;;;;25.58;54.17;101262.41;5017740;27;114962;-69
2021/06/18 04:44:04;;;;;;;10.68;7.80;;;;;;;25.60;54.34;101258.53;5020232;27;124033;-69
2021/06/18 04:46:31;;;;;;;9.30;6.88;;;;;;;25.63;54.04;101255.50;5024162;27;124268;-69
2021/06/18 04:48:58;;;;;;;11.93;7.60;;;;;;;25.69;54.23;101262.16;5002838;28;113448;-69
2021/06/18 04:51:25;;;;;;;11.43;8.02;;;;;;;25.71;54.38;101249.31;5025320;27;114323;-69
2021/06/18 04:53:54;;;;;;;11.63;7.95;;;;;;;25.70;54.40;101242.16;5029686;27;123453;-69
2021/06/18 04:56:21;;;;;;;11.02;8.20;;;;;;;25.67;54.46;101256.03;5011577;27;124111;-69
2021/06/18 04:58:49;;;;;;;11.93;7.43;;;;;;;25.65;54.85;101258.06;5010738;28;113247;-69
2021/06/18 05:01:16;;;;;;;9.00;6.60;;;;;;;25.64;54.67;101259.09;5024960;28;112152;-69
2021/06/18 05:03:43;;;;;;;11.40;7.85;;;;;;;25.63;54.99;101266.34;5008965;28;123378;-69
2021/06/18 05:06:11;;;;;;;10.80;7.32;;;;;;;25.63;55.25;101270.94;5023352;28;124671;-68
2021/06/18 05:08:38;;;;;;;10.52;7.47;;;;;;;25.65;55.16;101268.91;5025762;27;114426;-68
2021/06/18 05:11:06;;;;;;;11.00;7.25;;;;;;;25.67;54.92;101272.31;5023307;27;114024;-68
2021/06/18 05:13:33;;;;;;;10.85;7.32;;;;;;;25.70;55.52;101265.75;5030908;27;124370;-68
2021/06/18 05:16:00;;;;;;;10.43;7.20;;;;;;;25.73;55.41;101271.72;5016800;28;124457;-68
2021/06/18 05:18:31;;;;;;;12.25;6.90;;;;;;;25.75;55.36;101277.81;5022178;27;114615;-68
2021/06/18 05:20:58;;;;;;;9.35;6.57;;;;;;;25.73;55.55;101271.72;5020739;27;114519;-68
2021/06/18 05:23:26;;;;;;;11.13;7.10;;;;;;;25.71;55.61;101267.44;5024751;28;124566;-68
2021/06/18 05:25:53;;;;;;;9.10;6.32;;;;;;;25.68;55.58;101265.91;5027431;27;124639;-68
2021/06/18 05:28:21;;;;;;;8.55;6.60;;;;;;;25.68;56.08;101263.19;4998088;28;114677;-68
2021/06/18 05:30:48;;;;;;;9.70;6.32;;;;;;;25.66;55.85;101259.78;5023083;27;115456;-69
2021/06/18 05:33:16;;;;;;;9.60;7.13;;;;;;;25.64;55.80;101254.50;5020409;27;124530;-69
2021/06/18 05:35:44;;;;;;;10.15;6.80;;;;;;;25.62;55.98;101261.09;5027668;28;123735;-69
2021/06/18 05:38:12;;;;;;;12.70;6.60;;;;;;;25.61;56.01;101257.53;5026775;27;114356;-69
2021/06/18 05:40:41;;;;;;;9.73;6.72;;;;;;;25.60;56.13;101255.00;5007339;28;114294;-69
2021/06/18 05:43:10;;;;;;;8.98;6.20;;;;;;;25.59;55.96;101258.69;5017908;27;124918;-69
2021/06/18 05:45:38;;;;;;;8.93;6.05;;;;;;;25.58;55.97;101252.44;5025473;28;124597;-68
2021/06/18 05:48:06;;;;;;;8.52;6.00;;;;;;;25.60;55.88;101249.56;5025381;27;113784;-69
2021/06/18 05:50:33;;;;;;;10.05;6.63;;;;;;;25.60;56.18;101244.13;5030860;28;114051;-68
2021/06/18 05:53:00;;;;;;;10.05;7.15;;;;;;;25.60;56.21;101249.56;5021720;27;124888;-68
2021/06/18 05:55:28;;;;;;;10.90;7.15;;;;;;;25.58;56.20;101246.13;5023502;28;124969;-68
2021/06/18 05:57:55;;;;;;;8.70;7.00;;;;;;;25.60;56.38;101249.56;5025393;27;114344;-68
2021/06/18 06:00:22;;;;;;;10.60;7.43;;;;;;;25.65;56.57;101258.06;5021556;27;114688;-68
2021/06/18 06:03:09;;;;;;;10.13;7.63;;;;;;;25.73;56.49;101265.41;5025799;28;124410;-69
2021/06/18 06:05:37;;;;;;;10.20;7.50;;;;;;;25.78;56.49;101263.91;5025465;28;124075;-69
2021/06/18 06:08:09;;;;;;;12.50;8.63;;;;;;;25.81;56.62;101260.91;5006667;28;114676;-69
2021/06/18 06:10:46;;;;;;;13.80;9.05;;;;;;;25.91;56.65;101265.38;5020333;28;114003;-69
2021/06/18 06:13:15;;;;;;;13.93;8.77;;;;;;;26.00;56.65;101261.75;5019531;28;124779;-68
2021/06/18 06:15:42;;;;;;;12.50;9.65;;;;;;;26.11;56.55;101264.19;5022734;27;124569;-69
2021/06/18 06:18:09;;;;;;;13.48;9.73;;;;;;;26.21;56.54;101253.19;5003484;28;115248;-70
2021/06/18 06:20:42;;;;;;;13.77;9.93;;;;;;;26.30;56.76;101256.81;5022556;28;115157;-69
2021/06/18 06:23:10;;;;;;;15.05;9.85;;;;;;;26.39;56.52;101255.81;5016032;28;124594;-69
2021/06/18 06:25:38;;;;;;;14.40;10.25;;;;;;;26.48;56.30;101260.28;5027374;28;124683;-70
2021/06/18 06:28:07;;;;;;;15.52;9.25;;;;;;;26.56;56.05;101260.34;5007454;28;113181;-69
2021/06/18 06:30:34;;;;;;;13.57;10.00;;;;;;;26.59;55.90;101257.28;5032363;27;114090;-69
2021/06/18 06:33:06;;;;;;;13.13;9.77;;;;;;;26.64;56.00;101266.84;5027831;27;124375;-69
2021/06/18 06:35:33;;;;;;;13.13;9.23;;;;;;;26.69;55.98;101267.19;5024350;27;124029;-69
2021/06/18 06:38:01;;;;;;;12.75;8.70;;;;;;;26.72;55.48;101261.44;5032942;27;114894;-69
2021/06/18 06:40:28;;;;;;;10.02;7.85;;;;;;;26.73;55.71;101263.13;5026565;27;114218;-69
2021/06/18 06:42:55;;;;;;;13.38;8.38;;;;;;;26.76;55.42;101268.22;5024267;27;124824;-69
2021/06/18 06:45:22;;;;;;;13.48;8.32;;;;;;;26.79;55.23;101273.34;5027396;27;123841;-68
2021/06/18 06:47:51;;;;;;;9.55;7.93;;;;;;;26.84;55.24;101281.84;5024159;27;114202;-69
2021/06/18 06:50:18;;;;;;;11.38;8.55;;;;;;;26.86;55.44;101268.97;5019981;27;114150;-70
2021/06/18 06:52:46;;;;;;;12.05;8.75;;;;;;;26.90;55.30;101275.75;4999989;28;124286;-70
2021/06/18 06:55:13;;;;;;;12.13;8.85;;;;;;;26.91;55.54;101274.72;5029579;27;124027;-70
2021/06/18 06:57:41;;;;;;;11.55;8.73;;;;;;;26.94;55.14;101276.28;5008309;28;113156;-70
2021/06/18 07:00:09;;;;;;;11.88;8.63;;;;;;;26.95;55.15;101281.53;5032572;27;113786;-70
2021/06/18 07:02:37;;;;;;;11.50;8.32;;;;;;;26.96;55.06;101283.25;4986859;28;123439;-70
2021/06/18 07:05:05;;;;;;;12.18;9.68;;;;;;;26.98;55.06;101277.66;5031069;27;123962;-69
2021/06/18 07:07:33;;;;;;;12.98;8.85;;;;;;;26.99;55.24;101269.34;5023844;27;115268;-70
2021/06/18 07:10:00;;;;;;;12.30;9.38;;;;;;;26.99;55.16;101274.78;5032680;27;114936;-68
2021/06/18 07:12:27;;;;;;;13.48;9.45;;;;;;;27.00;54.88;101281.88;5029036;28;123844;-67
2021/06/18 07:14:56;;;;;;;12.80;9.43;;;;;;;27.02;54.76;101272.72;5022618;28;123917;-68
2021/06/18 07:17:24;;;;;;;13.68;9.93;;;;;;;27.02;54.76;101273.56;5026423;28;114576;-67
2021/06/18 07:19:53;;;;;;;12.98;9.90;;;;;;;27.03;54.87;101274.41;5025373;27;113027;-67
2021/06/18 07:22:21;;;;;;;12.73;9.25;;;;;;;27.00;54.94;101273.72;5009593;28;123107;-67
2021/06/18 07:24:51;;;;;;;15.02;9.25;;;;;;;26.96;55.09;101275.09;5022695;27;124693;-67
2021/06/18 07:27:20;;;;;;;12.93;9.43;;;;;;;26.96;55.31;101277.81;5004619;28;114671;-67
2021/06/18 07:29:47;;;;;;;11.65;9.50;;;;;;;26.98;54.88;101277.66;5024071;27;114104;-67
2021/06/18 07:32:15;;;;;;;13.05;9.85;;;;;;;27.00;54.89;101264.72;5000572;28;123992;-67
2021/06/18 07:34:43;;;;;;;13.15;9.85;;;;;;;27.00;55.12;101254.72;5015240;28;122870;-68
2021/06/18 07:37:10;;;;;;;13.80;10.25;;;;;;;27.02;54.96;101261.84;5027891;27;114375;-68
2021/06/18 07:39:48;;;;;;;14.38;10.38;;;;;;;26.97;55.02;101252.34;4999606;28;113200;-68
2021/06/18 07:42:28;;;;;;;13.52;10.63;;;;;;;26.96;54.91;101253.34;5019936;28;123850;-68
2021/06/18 07:44:55;;;;;;;13.07;10.27;;;;;;;26.95;55.14;101239.91;5019787;27;124687;-68
2021/06/18 07:47:23;;;;;;;13.50;10.88;;;;;;;26.93;55.40;101231.06;5022043;27;115079;-67
2021/06/18 07:49:51;;;;;;;14.43;10.35;;;;;;;26.92;55.47;101235.66;5014883;28;113215;-70
2021/06/18 07:52:19;;;;;;;9.02;7.10;;;;;;;26.95;54.95;101229.03;5025800;27;124067;-70
2021/06/18 07:54:47;;;;;;;11.40;7.38;;;;;;;26.96;55.08;101212.56;5019637;27;123645;-70
2021/06/18 07:57:16;;;;;;;8.50;6.90;;;;;;;26.99;54.94;101206.81;5005640;22;114302;-63
2021/06/18 07:59:43;;;;;;;10.13;7.38;;;;;;;26.99;54.57;101198.66;5016882;28;114756;-63
2021/06/18 08:02:11;;;;;;;8.82;6.85;;;;;;;27.02;54.54;101196.59;5021816;27;123799;-64
2021/06/18 08:04:53;;;;;;;8.07;6.18;;;;;;;27.06;54.22;101200.69;5022565;27;124092;-63
2021/06/18 08:07:22;;;;;;;9.68;5.93;;;;;;;27.08;53.85;101202.19;5021714;27;114103;-63
2021/06/18 08:09:50;;;;;;;8.85;6.72;;;;;;;27.11;53.60;101206.47;5019704;27;114263;-63
2021/06/18 08:12:18;;;;;;;7.28;5.88;;;;;;;27.14;53.04;101207.00;4987009;28;121761;-63
2021/06/18 08:14:45;;;;;;;9.45;6.10;;;;;;;27.18;52.89;101202.03;5008306;28;122877;-64
2021/06/18 08:17:14;;;;;;;7.50;5.88;;;;;;;27.23;52.71;101204.25;5027123;28;114687;-64
2021/06/18 08:19:41;;;;;;;8.85;6.65;;;;;;;27.27;52.58;101206.50;5030302;28;114323;-63
2021/06/18 08:22:09;;;;;;;6.85;6.15;;;;;;;27.33;52.31;101194.94;5025014;27;123957;-63
2021/06/18 08:24:37;;;;;;;9.15;6.55;;;;;;;27.37;52.22;101196.31;5029543;28;124151;-63
2021/06/18 08:27:04;;;;;;;9.98;6.60;;;;;;;27.43;51.91;101188.50;5023565;27;114371;-63
2021/06/18 08:29:31;;;;;;;7.47;6.65;;;;;;;27.48;51.98;101186.94;5009587;28;113079;-63
2021/06/18 08:31:59;;;;;;;9.50;6.57;;;;;;;27.54;51.65;101182.69;5021419;28;124249;-63
2021/06/18 08:34:26;;;;;;;7.97;6.75;;;;;;;27.60;51.88;101190.16;5020721;28;124221;-63
2021/06/18 08:36:54;;;;;;;9.02;7.22;;;;;;;27.68;51.70;101181.97;5019617;28;114403;-63
2021/06/18 08:39:21;;;;;;;8.95;7.18;;;;;;;27.77;51.61;101186.38;5024118;27;114089;-63
2021/06/18 08:41:49;;;;;;;9.38;7.30;;;;;;;27.89;51.33;101188.75;5029932;28;123509;-63
2021/06/18 08:44:17;;;;;;;9.80;7.00;;;;;;;27.98;51.35;101193.16;5024146;28;124160;-63
2021/06/18 08:46:44;;;;;;;8.38;6.85;;;;;;;28.08;51.30;101182.91;4994016;28;114364;-63
2021/06/18 08:49:12;;;;;;;8.75;7.18;;;;;;;28.23;51.06;101184.91;5022740;27;115337;-63
2021/06/18 08:51:40;;;;;;;8.93;7.07;;;;;;;28.40;50.95;101186.50;5026131;28;124344;-64
2021/06/18 08:54:07;;;;;;;9.77;7.78;;;;;;;28.56;50.81;101191.06;5023266;27;124177;-63
2021/06/18 08:56:34;;;;;;;10.63;8.07;;;;;;;28.70;50.41;101197.63;5003392;27;114523;-63
2021/06/18 08:59:01;;;;;;;9.27;8.23;;;;;;;28.86;49.97;101194.81;5008720;27;113122;-64
2021/06/18 09:01:29;;;;;;;11.40;8.73;;;;;;;28.98;49.48;101199.84;5026064;27;124117;-63
2021/06/18 09:04:02;;;;;;;10.88;8.07;;;;;;;29.10;49.73;101198.34;5026472;27;124251;-64
2021/06/18 09:06:36;;;;;;;11.43;9.52;;;;;;;29.25;48.99;101195.72;5025939;27;114330;-64
2021/06/18 09:09:20;;;;;;;12.27;8.93;;;;;;;29.36;48.89;101202.63;5011854;28;114725;-63
2021/06/18 09:11:56;;;;;;;12.77;9.10;;;;;;;29.46;49.08;101200.47;5021665;28;123843;-63
2021/06/18 09:14:30;;;;;;;13.05;9.45;;;;;;;29.58;48.64;101201.72;5010088;28;123988;-64
2021/06/18 09:17:27;;;;;;;14.00;9.00;;;;;;;29.70;48.25;101210.31;5026200;27;114453;-64
2021/06/18 09:19:59;;;;;;;14.13;9.68;;;;;;;29.81;48.11;101206.31;5025756;28;113961;-64
2021/06/18 09:22:38;;;;;;;12.68;10.18;;;;;;;29.88;48.31;101218.19;5007814;28;123195;-64
2021/06/18 09:25:10;;;;;;;12.80;10.77;;;;;;;29.97;47.89;101208.00;5021074;28;123901;-64
2021/06/18 09:27:50;;;;;;;12.30;10.38;;;;;;;30.06;47.49;101215.94;5002680;28;113074;-65
2021/06/18 09:30:20;;;;;;;14.20;9.98;;;;;;;30.16;47.79;101209.31;5017828;27;113891;-65
2021/06/18 09:33:04;;;;;;;;;;;;;;;30.23;48.26;101210.25;5029460;27;124107;-65
2021/06/18 09:35:33;;;;;;;14.68;10.13;;;;;;;30.37;47.81;101201.25;5029473;27;124221;-65
2021/06/18 09:38:04;;;;;;;15.93;11.70;;;;;;;30.46;47.30;101200.09;5013359;28;114347;-65
2021/06/18 09:40:31;;;;;;;15.07;10.95;;;;;;;30.53;47.36;101196.59;5031102;28;115436;-65
2021/06/18 09:42:58;;;;;;;13.52;9.95;;;;;;;30.59;47.73;101198.53;5030754;27;124187;-65
2021/06/18 09:45:31;;;;;;;13.95;10.60;;;;;;;30.69;47.41;101193.63;5032091;27;124190;-65
2021/06/18 09:48:11;;;;;;;13.93;10.80;;;;;;;30.80;47.23;101179.44;5008697;28;114303;-65
2021/06/18 09:50:40;;;;;;;12.65;10.20;;;;;;;30.90;46.90;101178.28;4999743;28;114545;-65
2021/06/18 09:53:21;;;;;;;14.10;11.35;;;;;;;30.97;46.82;101173.75;5011705;28;124394;-64
2021/06/18 09:56:08;;;;;;;14.32;11.68;;;;;;;31.07;46.45;101168.78;5031549;27;124165;-65
2021/06/18 09:58:40;;;;;;;13.52;11.68;;;;;;;31.16;45.83;101162.13;5029350;27;113862;-65
2021/06/18 10:01:14;;;;;;;15.68;11.95;;;;;;;31.19;45.55;101169.97;5018323;27;113245;-65
2021/06/18 10:04:02;;;;;;;14.80;11.57;;;;;;;31.23;45.93;101157.56;5033686;28;124371;-65
2021/06/18 10:06:32;;;;;;;13.73;10.43;;;;;;;31.32;46.18;101160.16;5015229;27;124427;-65
2021/06/18 10:09:00;;;;;;;16.00;11.55;;;;;;;31.42;45.61;101168.88;5034689;27;114839;-64
2021/06/18 10:11:29;;;;;;;13.15;10.73;;;;;;;31.52;45.37;101177.59;5032709;27;113855;-64
2021/06/18 10:13:57;;;;;;;15.77;11.60;;;;;;;31.58;45.25;101168.59;5014683;28;123963;-64
2021/06/18 10:16:26;;;;;;;12.63;10.00;;;;;;;31.65;44.84;101165.03;5032838;27;123719;-66
2021/06/18 10:18:57;;;;;;;12.48;9.90;;;;;;;31.68;44.51;101159.16;5026583;27;114124;-64
2021/06/18 10:21:26;;;;;;;13.02;10.07;;;;;;;31.71;44.40;101164.25;5023352;28;114068;-65
2021/06/18 10:23:57;;;;;;;15.30;10.55;;;;;;;31.79;44.70;101166.81;5025263;28;124043;-64
2021/06/18 10:26:26;;;;;;;16.90;9.68;;;;;;;31.91;43.93;101165.22;5018568;27;123692;-64
2021/06/18 10:28:56;;;;;;;11.30;9.98;;;;;;;32.01;43.56;101149.25;5004784;28;115485;-64
2021/06/18 10:31:31;;;;;;;11.63;9.27;;;;;;;32.10;43.66;101146.34;5024646;27;114827;-65
2021/06/18 10:34:16;;;;;;;11.88;8.40;;;;;;;32.23;44.38;101146.44;5018228;27;124186;-65
2021/06/18 10:36:44;;;;;;;12.70;9.38;;;;;;;32.40;44.44;101147.75;5021777;28;124058;-66
2021/06/18 10:39:14;;;;;;;11.68;9.90;;;;;;;32.52;43.45;101144.41;5030227;27;114321;-66
2021/06/18 10:41:49;;;;;;;11.80;9.82;;;;;;;32.55;42.67;101138.47;5015730;28;113277;-66
2021/06/18 10:44:39;;;;;;;12.32;9.88;;;;;;;32.59;43.43;101128.84;5028203;27;124115;-66
2021/06/18 10:47:30;;;;;;;12.82;9.98;;;;;;;32.65;42.75;101122.53;5027977;27;123771;-65
2021/06/18 10:49:59;;;;;;;12.18;8.88;;;;;;;32.74;42.29;101132.25;5029008;28;114309;-65
2021/06/18 10:52:38;;;;;;;13.18;9.52;;;;;;;32.80;42.51;101135.22;5025941;27;114171;-65
2021/06/18 10:55:06;;;;;;;10.93;8.23;;;;;;;32.84;42.47;101125.50;5024065;27;123874;-65
2021/06/18 10:57:33;;;;;;;9.88;7.97;;;;;;;32.88;42.74;101118.53;5004100;28;124012;-65
2021/06/18 11:00:09;;;;;;;12.10;8.65;;;;;;;32.94;41.99;101109.44;5028906;27;114311;-66
2021/06/18 11:02:39;;;;;;;9.82;8.40;;;;;;;33.00;41.96;101111.34;4996756;28;113360;-66
2021/06/18 11:05:33;;;;;;;11.25;6.97;;;;;;;33.04;41.18;101109.91;5022231;27;124311;-66
2021/06/18 11:08:14;;;;;;;7.93;6.30;;;;;;;33.12;41.49;101112.44;5010951;28;122982;-66
2021/06/18 11:11:00;;;;;;;9.30;6.57;;;;;;;33.23;41.80;101102.72;5018875;28;114432;-66
2021/06/18 11:13:28;;;;;;;10.63;7.72;;;;;;;33.32;41.41;101100.59;5026822;28;114314;-65
2021/06/18 11:15:55;;;;;;;11.20;7.35;;;;;;;33.35;40.53;101094.69;5008894;28;122925;-65
2021/06/18 11:18:32;;;;;;;8.35;6.00;;;;;;;33.41;40.64;101099.31;5029641;27;124295;-66
2021/06/18 11:21:02;;;;;;;9.98;6.18;;;;;;;33.44;40.40;101104.38;5020169;27;115626;-66
2021/06/18 11:23:33;;;;;;;8.98;5.95;;;;;;;33.49;40.60;101101.84;5021719;27;115213;-66